Ir al contenido principal

Entradas

Accidente en Aeropuerto Municipal de CHICAGO

Weather about the time of the accident (13:30 local, 19:30 UTC) was reported as: KPWK 051852Z 31009KT 10SM FEW025 BKN055 M06/M11 A3019 RMK AO2 SLP232 T10611111= KPWK 051941Z 33009KT 10SM FEW060 M06/M11 A3018 RMK AO2= [Wind 330 degrees at 9 knots; visibility 10 miles; few clouds at 6,000 ft; temperature -6 degrees C, dew point -11 degrees C; 1022 hPa] KPWK 051952Z 33010KT 10SM FEW060 M06/M11 A3018 RMK AO2 SLP231 T10561111= View more news videos at: http://www.nbcchicago.com/video . View more news videos at: http://www.nbcchicago.com/video . Estado: Preliminar Fecha: 05 ENE 2010 Hora: ca 13:30 Tipo: Gates Learjet 35A Operator: Royal Air Freight Registración: N720RA Numéro de série: 156 Año de Construcción: 1977 Tripulación: Fatalidades: 2 / Ocupantes: 2 Pasajeros: Fatalidades: 0 / Ocupantes: 0 Total: Fatalidades: 2 / Ocupantes: 2 Daños en la Aeronave: Considerable Ubicación: ca 2,5 km S of Chicago-Executive Airport, IL (PWK) (Estados Unidos

Ezeiza nueva disposicion de plataforma de cargas

De esta forma quedaría realizada la nueva configuración para plataformas de cargas, a partir del dia 23/12/09. 52, 52A, 52B , 53, 53A, 53B y 54, 54A, 54B. 50, 50A, 50B y 51, 51A, 51B 55, 55A, 55B DESCARGA DEL ARCHIVO

Noticias: AIR COMET

Fuente: elpais.com Air Comet, la aerolínea perteneciente al presidente de la CEOE, Gerardo Díaz Ferrán, está a punto de tirar la toalla tras meses de agonía, en los que han aflorado 16 millones de euros de deuda con la Seguridad Social, las nóminas de varios meses por pagar a sus trabajadores, huelgas e incidencias. La puntilla se la dio ayer un juez británico, que decidió el embargo y la inmovilización de los aviones por una deuda de 17 millones de euros. La compañía suspendió todos los vuelos del día y comunicó a los trabajadores que hoy presentaría un expediente de regulación de empleo (ERE) para despedir a toda su plantilla, unas 640 personas, y un concurso de acreedores voluntario (antigua suspensión de pagos). Anoche, la compañía del grupo Marsans, de Díaz Ferrán y Gonzalo Pascual, reunió a su gabinete de crisis para buscar "soluciones a la viabilidad de la compañía". Al filo de las 00.30, los directivos de Air Comet recibieron una contundente comunicación del Ministe

PRIMER VUELO BOEING 787

El nuevo avión de Boeing hizo su vuelo inaugural en Seattle El 787 Dreamliner de la empresa estadounidense, despegó después de dos años de retrasos; llevará 250 pasajeros y permitirá ahorrar un 20% de combustible Boeing lucha por la supremacía comercial con su rival europea Airbus, y espera que su 787 sea la visión del futuro para el transporte aéreo mundial Foto: AP EVERETT, EE.UU.- Después de dos años de retrasos, el nuevo Boeing 787, "Dreamliner", con capacidad para llevar 250 pasajeros y construido con materiales livianos que le permitirán usar un 20% menos de combustible que los aviones actuales de dimesiones similares, inició hoy su primer vuelo de prueba desde la planta de la compañía en Everett, Seattle. Miles de empleados de Boeing se congregaron en el aeródromo de Paine Fields, cercano a la planta de la firma ubicada en el estado de Washington, para asistir al despegue. La primera entrega de un aparato considerado clave para el futuro de la empresa será reci

Accidente en China MD11 Cargo

METAR: ZSPD 280030Z 01007MPS 9999 SCT020 12/07 Q1028 NOSIG ZSPD 280000Z 36007MPS 9999 SCT020 12/07 Q1027 NOSIG Actualizado 2009-11-28 16:53:23 | Spanish. News. Cn Esta imagen, captada el 28 de noviembre de 2009, muestra los restos de un avión que se accidentó en el Aeropuerto Internacional de Pudong de Shanghai (este de China), el 28 de noviembre de 2009. Un avión de carga registrado en Zimbabwe se incendió el sábado tras salirse de la pista en momentos en que se aprestaba a despegar desde el citado terminal, dejando un saldo de tres tripulantes muertos y otros cuatro heridos. SHANGHAI, 28 nov (Xinhua) -- Un avión de carga se estrelló en el Aeropuerto Internacional de Pudong de la metrópoli oriental china de Shanghai hacia las 7:40 horas de hoy sábado. El equipo de rescate confirmó que cuatro de los siete tripulantes a bordo resultaron heridos. Hasta el

Accidente en ITALIA - PISA Informe de Adriano F. Fioretti

Nuestro corresponsal Mauro Zotti desde Paraguay primeramente se sumo a colaborar con noticias. Hoy me complace presentar a un nuevo colaborador que se suma al blog esta vez desde Italia, Adriano Federico Fioretti. aqui su reporte del accidente de Pisa protagonizado por un C130. Accidente C-130J Pisa 5 muertos todavia sin respuestas E l contenido de las cajas negras y los planes de vuelo ya estan siendo analizados por la junta de accidentes de la “Aeronautica Militare” para llegar a una respuesta del porque un C-130J se estrello durante un vuelo militar de entrenamiento provocando cinco victimas : tres pilotos y dos asistentes a la carga. Las conversaciones entre la tripulacion y la torre podrian ser muy utiles : “probablemente , explica el comandante de la base aerea de Pisa, el general de brigada Stefano Fort , la tripulacion no ha tenido el tiempo de pedir ayuda o de señalar la emergencia. La aeronave era en vuelo y en pocos segundos se estrello. La proxima semana el pe